Orlando, FL (32812)

5:17 AM EDT on August 30, 2016 (GMT -0400)
Lake Conway Estates | | Change Station

Elev 98 ft 28.48 °N, 81.33 °W | Updated 6 seconds ago

Partly Cloudy
Partly Cloudy
73.9 °F
Feels Like 71 °F
N
0.0
Wind Variable Wind from North
Gusts 0.0 mph

Today
High -- | Low -- °F
--% Chance of Precip.
Yesterday
High -- | Low -- °F
Precip. -- in
Pressure 29.93 in
Visibility 10.0 miles
Clouds Few 7000 ft
Heat Index 71 °F
Dew Point 72 °F
Humidity 94%
Rainfall 0.00 in
Snow Depth Not available.
7:02 AM 7:48 PM
Waning Crescent, 4% visible
METAR KORL 300853Z AUTO 00000KT 10SM FEW070 23/23 A2992 RMK AO2 SLP135 60000 T02330228 56012
Pressure 29.93 in
Visibility 10.0 miles
Clouds Few 7000 ft
Heat Index 71 °F
Dew Point 72 °F
Humidity 94%
Rainfall 0.00 in
Snow Depth Not available.
7:02 AM 7:48 PM
Waning Crescent, 4% visible
METAR KORL 300853Z AUTO 00000KT 10SM FEW070 23/23 A2992 RMK AO2 SLP135 60000 T02330228 56012

10-Day Weather Forecast

Almanac

Astronomy

Aug. 30, 2016 Rise Set
Actual Time
Civil Twilight
Nautical Twilight
Astronomical Twilight
Moon
Length of Visible Light
Length of Day
Tomorrow will be .
, % of the Moon is Illuminated

Today's Extremes

State Highs State Lows

Community

WunderPhotos

Upload Photos

1,935,795 photos uploaded!

WunderBlog® & News

Nearby

Air Quality

  Air Quality AQ Index Pollutant
Not available.

Snow Depth

Station Depth Elevation

Earthquake Activity

City Distance Mag. Time & Date
Minimum magnitude displayed is 2.5.

Coastal Water Temperatures

Place Temperature

Stations

Nearby Weather Stations

Station Location Temp. Windchill Dew Point Humidity Wind Precip. Elev Updated Type
                   

Watches & Warnings

There are currently no watches in effect.